UAL273 KDEN-KDSM
Flight info
| Callsign | UAL273 |
|---|---|
| Flight time | 1h 18m |
| Altitude | 37000 |
| Route | EEONS8 WYNDM HCT LNK DSM |
| Aircraft | B739/M-SDE2E3FGHIRWXY/LB1 |
Departure
| Time | 2026-04-24 21:36 |
|---|---|
| Airport | Denver International Airport (KDEN) |
Arrival
| Time | 2026-04-24 22:55 |
|---|---|
| Airport | Des Moines International Airport (KDSM) |
| Time | Latitude | Longitude | Altitude | Speed | Heading |
|---|---|---|---|---|---|
| 2026-04-24 21:12 | 39.85950 | -104.66712 | 5384 ft | 0 kts | 180° |
| 2026-04-24 21:24 | 39.85954 | -104.66712 | 5384 ft | 1 kts | 180° |
| 2026-04-24 21:25 | 39.85963 | -104.66712 | 5384 ft | 2 kts | 176° |
| 2026-04-24 21:25 | 39.85978 | -104.66718 | 5384 ft | 2 kts | 153° |
| 2026-04-24 21:25 | 39.85991 | -104.66728 | 5384 ft | 2 kts | 136° |
| 2026-04-24 21:25 | 39.86000 | -104.66743 | 5383 ft | 2 kts | 119° |
| 2026-04-24 21:26 | 39.86006 | -104.66761 | 5383 ft | 2 kts | 101° |
| 2026-04-24 21:26 | 39.86007 | -104.66773 | 5383 ft | 0 kts | 90° |
| 2026-04-24 21:26 | 39.86007 | -104.66782 | 5383 ft | 0 kts | 89° |
| 2026-04-24 21:29 | 39.86007 | -104.66779 | 5383 ft | 0 kts | 89° |
| 2026-04-24 21:29 | 39.86007 | -104.66767 | 5383 ft | 2 kts | 89° |
| 2026-04-24 21:30 | 39.86007 | -104.66737 | 5383 ft | 4 kts | 89° |
| 2026-04-24 21:30 | 39.86008 | -104.66692 | 5383 ft | 5 kts | 89° |
| 2026-04-24 21:30 | 39.86008 | -104.66638 | 5383 ft | 6 kts | 89° |
| 2026-04-24 21:30 | 39.86011 | -104.66576 | 5383 ft | 7 kts | 83° |
| 2026-04-24 21:31 | 39.86017 | -104.66499 | 5382 ft | 10 kts | 88° |
| 2026-04-24 21:31 | 39.86017 | -104.66398 | 5381 ft | 11 kts | 90° |
| 2026-04-24 21:31 | 39.86017 | -104.66361 | 5382 ft | 0 kts | 89° |
| 2026-04-24 21:31 | 39.86018 | -104.66350 | 5382 ft | 1 kts | 70° |
| 2026-04-24 21:32 | 39.86032 | -104.66338 | 5383 ft | 4 kts | 4° |
| 2026-04-24 21:32 | 39.86087 | -104.66344 | 5382 ft | 10 kts | 356° |
| 2026-04-24 21:32 | 39.86180 | -104.66346 | 5384 ft | 15 kts | 0° |
| 2026-04-24 21:32 | 39.86309 | -104.66345 | 5384 ft | 21 kts | 360° |
| 2026-04-24 21:33 | 39.86469 | -104.66344 | 5384 ft | 23 kts | 1° |
| 2026-04-24 21:33 | 39.86580 | -104.66342 | 5384 ft | 23 kts | 360° |
| 2026-04-24 21:33 | 39.86804 | -104.66340 | 5376 ft | 25 kts | 1° |
| 2026-04-24 21:33 | 39.86986 | -104.66337 | 5374 ft | 25 kts | 0° |
| 2026-04-24 21:34 | 39.87168 | -104.66335 | 5370 ft | 26 kts | 0° |
| 2026-04-24 21:34 | 39.87351 | -104.66331 | 5364 ft | 21 kts | 0° |
| 2026-04-24 21:34 | 39.87466 | -104.66309 | 5364 ft | 15 kts | 47° |
| 2026-04-24 21:34 | 39.87536 | -104.66216 | 5364 ft | 14 kts | 7° |
| 2026-04-24 21:35 | 39.87637 | -104.66215 | 5364 ft | 13 kts | 0° |
| 2026-04-24 21:35 | 39.87730 | -104.66204 | 5364 ft | 12 kts | 30° |
| 2026-04-24 21:35 | 39.87755 | -104.66137 | 5364 ft | 0 kts | 83° |
| 2026-04-24 21:36 | 39.87758 | -104.65941 | 5361 ft | 57 kts | 92° |
| 2026-04-24 21:36 | 39.87748 | -104.65099 | 5352 ft | 126 kts | 90° |
| 2026-04-24 21:36 | 39.87742 | -104.63666 | 5333 ft | 185 kts | 91° |
| 2026-04-24 21:36 | 39.87740 | -104.61961 | 6058 ft | 180 kts | 89° |
| 2026-04-24 21:37 | 39.87789 | -104.60420 | 6909 ft | 168 kts | 88° |
| 2026-04-24 21:37 | 39.87794 | -104.58775 | 7186 ft | 191 kts | 92° |
| 2026-04-24 21:37 | 39.87826 | -104.56981 | 7591 ft | 206 kts | 79° |
| 2026-04-24 21:37 | 39.88260 | -104.55119 | 8046 ft | 220 kts | 69° |
| 2026-04-24 21:38 | 39.88799 | -104.53192 | 8491 ft | 236 kts | 71° |
| 2026-04-24 21:38 | 39.89325 | -104.51057 | 8907 ft | 255 kts | 73° |
| 2026-04-24 21:38 | 39.89842 | -104.48756 | 9349 ft | 273 kts | 74° |
| 2026-04-24 21:38 | 39.90391 | -104.46274 | 9756 ft | 293 kts | 74° |
| 2026-04-24 21:39 | 39.90991 | -104.43618 | 9806 ft | 314 kts | 73° |
| 2026-04-24 21:39 | 39.91639 | -104.40843 | 9796 ft | 315 kts | 73° |
| 2026-04-24 21:39 | 39.92276 | -104.38074 | 9806 ft | 335 kts | 73° |
| 2026-04-24 21:39 | 39.92965 | -104.34963 | 9940 ft | 365 kts | 75° |
| 2026-04-24 21:40 | 39.93666 | -104.31756 | 10362 ft | 382 kts | 75° |
| 2026-04-24 21:40 | 39.94420 | -104.28293 | 10881 ft | 396 kts | 75° |
| 2026-04-24 21:40 | 39.95177 | -104.24808 | 11564 ft | 400 kts | 75° |
| 2026-04-24 21:40 | 39.95943 | -104.21277 | 11775 ft | 402 kts | 75° |
| 2026-04-24 21:41 | 39.96691 | -104.17828 | 11796 ft | 398 kts | 75° |
| 2026-04-24 21:41 | 39.97361 | -104.14252 | 11801 ft | 397 kts | 79° |
| 2026-04-24 21:41 | 39.97839 | -104.10718 | 11808 ft | 398 kts | 82° |
| 2026-04-24 21:41 | 39.98236 | -104.07108 | 11816 ft | 395 kts | 83° |
| 2026-04-24 21:42 | 39.98600 | -104.03507 | 11815 ft | 397 kts | 83° |
| 2026-04-24 21:42 | 39.98956 | -103.99953 | 11818 ft | 393 kts | 83° |
| 2026-04-24 21:42 | 39.99320 | -103.96379 | 11820 ft | 397 kts | 83° |
| 2026-04-24 21:42 | 39.99690 | -103.92821 | 11822 ft | 396 kts | 83° |
| 2026-04-24 21:43 | 40.00116 | -103.89271 | 11809 ft | 397 kts | 81° |
| 2026-04-24 21:43 | 40.00653 | -103.85689 | 11809 ft | 394 kts | 79° |
| 2026-04-24 21:43 | 40.01237 | -103.82173 | 11811 ft | 394 kts | 78° |
| 2026-04-24 21:43 | 40.01833 | -103.78650 | 11835 ft | 400 kts | 78° |
| 2026-04-24 21:44 | 40.02435 | -103.75056 | 12694 ft | 404 kts | 78° |
| 2026-04-24 21:44 | 40.03034 | -103.71494 | 13635 ft | 406 kts | 77° |
| 2026-04-24 21:44 | 40.03651 | -103.67819 | 14402 ft | 413 kts | 77° |
| 2026-04-24 21:44 | 40.04263 | -103.64147 | 15254 ft | 417 kts | 78° |
| 2026-04-24 21:45 | 40.04887 | -103.60375 | 16023 ft | 424 kts | 77° |
| 2026-04-24 21:45 | 40.05508 | -103.56598 | 16757 ft | 430 kts | 77° |
| 2026-04-24 21:45 | 40.06141 | -103.52733 | 17492 ft | 436 kts | 77° |
| 2026-04-24 21:45 | 40.06778 | -103.48820 | 18314 ft | 439 kts | 77° |
| 2026-04-24 21:46 | 40.07414 | -103.44908 | 19017 ft | 445 kts | 77° |
| 2026-04-24 21:46 | 40.08060 | -103.40911 | 19694 ft | 451 kts | 77° |
| 2026-04-24 21:46 | 40.08717 | -103.36854 | 20380 ft | 456 kts | 77° |
| 2026-04-24 21:46 | 40.09372 | -103.32793 | 21016 ft | 461 kts | 77° |
| 2026-04-24 21:47 | 40.10043 | -103.28622 | 21612 ft | 467 kts | 78° |
| 2026-04-24 21:47 | 40.10493 | -103.25819 | 22049 ft | 470 kts | 77° |
| 2026-04-24 21:47 | 40.11394 | -103.20187 | 22886 ft | 476 kts | 77° |
| 2026-04-24 21:47 | 40.12083 | -103.15865 | 23446 ft | 481 kts | 77° |
| 2026-04-24 21:48 | 40.12769 | -103.11562 | 23977 ft | 487 kts | 77° |
| 2026-04-24 21:48 | 40.13459 | -103.07224 | 24601 ft | 490 kts | 77° |
| 2026-04-24 21:48 | 40.14157 | -103.02816 | 25212 ft | 494 kts | 77° |
| 2026-04-24 21:48 | 40.14855 | -102.98401 | 25651 ft | 500 kts | 77° |
| 2026-04-24 21:49 | 40.15565 | -102.93897 | 26218 ft | 504 kts | 77° |
| 2026-04-24 21:49 | 40.16280 | -102.89343 | 26784 ft | 507 kts | 77° |
| 2026-04-24 21:49 | 40.16990 | -102.84814 | 27286 ft | 511 kts | 77° |
| 2026-04-24 21:49 | 40.17711 | -102.80203 | 27973 ft | 512 kts | 77° |
| 2026-04-24 21:50 | 40.18418 | -102.75658 | 28727 ft | 509 kts | 77° |
| 2026-04-24 21:50 | 40.19120 | -102.71139 | 29348 ft | 509 kts | 77° |
| 2026-04-24 21:50 | 40.19821 | -102.66612 | 29982 ft | 509 kts | 77° |
| 2026-04-24 21:50 | 40.20525 | -102.62055 | 30592 ft | 508 kts | 77° |
| 2026-04-24 21:51 | 40.21232 | -102.57471 | 31150 ft | 508 kts | 76° |
| 2026-04-24 21:51 | 40.21932 | -102.52914 | 31563 ft | 510 kts | 77° |
| 2026-04-24 21:51 | 40.22628 | -102.48370 | 31998 ft | 511 kts | 76° |
| 2026-04-24 21:51 | 40.23319 | -102.43842 | 32466 ft | 510 kts | 76° |
| 2026-04-24 21:52 | 40.24025 | -102.39209 | 32908 ft | 511 kts | 76° |
| 2026-04-24 21:52 | 40.24719 | -102.34640 | 33327 ft | 511 kts | 76° |
| 2026-04-24 21:52 | 40.25405 | -102.30117 | 33667 ft | 512 kts | 76° |
| 2026-04-24 21:52 | 40.26100 | -102.25520 | 34066 ft | 512 kts | 76° |
| 2026-04-24 21:53 | 40.26790 | -102.20946 | 34388 ft | 513 kts | 76° |
| 2026-04-24 21:53 | 40.27480 | -102.16351 | 34685 ft | 513 kts | 77° |
| 2026-04-24 21:53 | 40.28171 | -102.11734 | 35010 ft | 512 kts | 76° |
| 2026-04-24 21:53 | 40.28854 | -102.07157 | 35347 ft | 510 kts | 76° |
| 2026-04-24 21:54 | 40.29533 | -102.02589 | 35634 ft | 507 kts | 77° |
| 2026-04-24 21:54 | 40.30205 | -101.98067 | 35769 ft | 511 kts | 77° |
| 2026-04-24 21:54 | 40.30890 | -101.93456 | 35802 ft | 512 kts | 77° |
| 2026-04-24 21:55 | 40.32242 | -101.84312 | 35819 ft | 508 kts | 77° |
| 2026-04-24 21:55 | 40.33581 | -101.75202 | 35824 ft | 507 kts | 77° |
| 2026-04-24 21:56 | 40.34919 | -101.66055 | 35823 ft | 506 kts | 77° |
| 2026-04-24 21:56 | 40.36231 | -101.57013 | 35818 ft | 506 kts | 77° |
| 2026-04-24 21:57 | 40.37550 | -101.47842 | 35823 ft | 507 kts | 77° |
| 2026-04-24 21:57 | 40.38849 | -101.38777 | 35822 ft | 505 kts | 77° |
| 2026-04-24 21:58 | 40.40144 | -101.29735 | 35826 ft | 506 kts | 78° |
| 2026-04-24 21:58 | 40.41430 | -101.20692 | 35837 ft | 506 kts | 78° |
| 2026-04-24 21:58 | 40.42075 | -101.16142 | 36039 ft | 508 kts | 78° |
| 2026-04-24 21:59 | 40.42725 | -101.11543 | 36516 ft | 504 kts | 78° |
| 2026-04-24 21:59 | 40.43358 | -101.07048 | 36808 ft | 504 kts | 78° |
| 2026-04-24 21:59 | 40.44002 | -101.02467 | 36832 ft | 508 kts | 78° |
| 2026-04-24 22:00 | 40.45276 | -100.93355 | 36845 ft | 501 kts | 78° |
| 2026-04-24 22:00 | 40.46500 | -100.84322 | 36847 ft | 503 kts | 79° |
| 2026-04-24 22:01 | 40.47672 | -100.75278 | 36848 ft | 502 kts | 79° |
| 2026-04-24 22:01 | 40.48837 | -100.66177 | 36858 ft | 502 kts | 79° |
| 2026-04-24 22:02 | 40.49995 | -100.57087 | 36845 ft | 501 kts | 79° |
| 2026-04-24 22:02 | 40.51146 | -100.48029 | 36856 ft | 502 kts | 79° |
| 2026-04-24 22:03 | 40.52295 | -100.38964 | 36847 ft | 501 kts | 79° |
| 2026-04-24 22:03 | 40.53427 | -100.29971 | 36857 ft | 501 kts | 80° |
| 2026-04-24 22:04 | 40.54563 | -100.20874 | 36854 ft | 502 kts | 80° |
| 2026-04-24 22:04 | 40.55686 | -100.11852 | 36863 ft | 501 kts | 80° |
| 2026-04-24 22:05 | 40.56805 | -100.02775 | 36873 ft | 499 kts | 80° |
| 2026-04-24 22:05 | 40.57908 | -99.93790 | 36854 ft | 500 kts | 80° |
| 2026-04-24 22:06 | 40.59002 | -99.84811 | 36858 ft | 500 kts | 80° |
| 2026-04-24 22:06 | 40.60107 | -99.75683 | 36869 ft | 499 kts | 80° |
| 2026-04-24 22:07 | 40.61174 | -99.66803 | 36871 ft | 499 kts | 80° |
| 2026-04-24 22:07 | 40.62260 | -99.57713 | 36853 ft | 500 kts | 80° |
| 2026-04-24 22:08 | 40.63338 | -99.48634 | 36877 ft | 500 kts | 80° |
| 2026-04-24 22:08 | 40.64407 | -99.39560 | 36872 ft | 500 kts | 81° |
| 2026-04-24 22:09 | 40.65462 | -99.30539 | 36861 ft | 500 kts | 81° |
| 2026-04-24 22:09 | 40.66519 | -99.21444 | 36868 ft | 500 kts | 81° |
| 2026-04-24 22:10 | 40.67571 | -99.12320 | 36872 ft | 501 kts | 81° |
| 2026-04-24 22:10 | 40.68607 | -99.03275 | 36880 ft | 500 kts | 81° |
| 2026-04-24 22:11 | 40.69647 | -98.94120 | 36889 ft | 500 kts | 81° |
| 2026-04-24 22:11 | 40.70668 | -98.85068 | 36882 ft | 500 kts | 81° |
| 2026-04-24 22:12 | 40.71689 | -98.75958 | 36877 ft | 500 kts | 81° |
| 2026-04-24 22:12 | 40.72694 | -98.66908 | 36871 ft | 500 kts | 81° |
| 2026-04-24 22:13 | 40.73700 | -98.57796 | 36876 ft | 499 kts | 81° |
| 2026-04-24 22:13 | 40.74692 | -98.48731 | 36884 ft | 500 kts | 81° |
| 2026-04-24 22:14 | 40.75684 | -98.39610 | 36887 ft | 499 kts | 81° |
| 2026-04-24 22:14 | 40.76662 | -98.30557 | 36896 ft | 499 kts | 82° |
| 2026-04-24 22:15 | 40.77628 | -98.21557 | 36892 ft | 499 kts | 82° |
| 2026-04-24 22:15 | 40.78599 | -98.12421 | 36896 ft | 499 kts | 82° |
| 2026-04-24 22:16 | 40.79556 | -98.03354 | 36899 ft | 498 kts | 82° |
| 2026-04-24 22:16 | 40.80510 | -97.94239 | 36900 ft | 500 kts | 82° |
| 2026-04-24 22:17 | 40.81460 | -97.85102 | 36898 ft | 499 kts | 83° |
| 2026-04-24 22:17 | 40.82398 | -97.75993 | 36900 ft | 498 kts | 82° |
| 2026-04-24 22:18 | 40.83326 | -97.66921 | 36900 ft | 498 kts | 83° |
| 2026-04-24 22:18 | 40.84249 | -97.57831 | 36896 ft | 497 kts | 82° |
| 2026-04-24 22:19 | 40.85164 | -97.48745 | 36895 ft | 497 kts | 82° |
| 2026-04-24 22:19 | 40.86075 | -97.39615 | 36892 ft | 497 kts | 82° |
| 2026-04-24 22:20 | 40.86970 | -97.30587 | 36890 ft | 496 kts | 83° |
| 2026-04-24 22:20 | 40.87861 | -97.21517 | 36896 ft | 497 kts | 83° |
| 2026-04-24 22:21 | 40.88741 | -97.12483 | 36893 ft | 497 kts | 84° |
| 2026-04-24 22:21 | 40.89622 | -97.03363 | 36899 ft | 496 kts | 83° |
| 2026-04-24 22:22 | 40.90493 | -96.94254 | 36901 ft | 495 kts | 84° |
| 2026-04-24 22:22 | 40.91351 | -96.85191 | 36905 ft | 497 kts | 84° |
| 2026-04-24 22:23 | 40.92230 | -96.76089 | 36906 ft | 497 kts | 82° |
| 2026-04-24 22:23 | 40.93552 | -96.67030 | 36910 ft | 498 kts | 77° |
| 2026-04-24 22:24 | 40.95187 | -96.58088 | 36910 ft | 498 kts | 76° |
| 2026-04-24 22:24 | 40.96872 | -96.49196 | 36903 ft | 497 kts | 76° |
| 2026-04-24 22:25 | 40.98531 | -96.40280 | 36907 ft | 498 kts | 76° |
| 2026-04-24 22:25 | 40.99346 | -96.35827 | 36731 ft | 494 kts | 76° |
| 2026-04-24 22:25 | 41.00139 | -96.31456 | 36356 ft | 489 kts | 77° |
| 2026-04-24 22:25 | 41.00913 | -96.27168 | 35858 ft | 487 kts | 77° |
| 2026-04-24 22:26 | 41.01696 | -96.22801 | 35324 ft | 490 kts | 77° |
| 2026-04-24 22:26 | 41.02475 | -96.18435 | 34741 ft | 495 kts | 77° |
| 2026-04-24 22:26 | 41.03270 | -96.13960 | 34314 ft | 493 kts | 77° |
| 2026-04-24 22:26 | 41.04046 | -96.09589 | 33806 ft | 491 kts | 77° |
| 2026-04-24 22:27 | 41.04828 | -96.05172 | 33226 ft | 490 kts | 77° |
| 2026-04-24 22:27 | 41.05611 | -96.00736 | 32595 ft | 490 kts | 77° |
| 2026-04-24 22:27 | 41.06387 | -95.96328 | 32175 ft | 484 kts | 77° |
| 2026-04-24 22:27 | 41.07143 | -95.92023 | 31713 ft | 480 kts | 77° |
| 2026-04-24 22:28 | 41.07896 | -95.87723 | 31255 ft | 475 kts | 77° |
| 2026-04-24 22:28 | 41.08635 | -95.83496 | 30809 ft | 471 kts | 77° |
| 2026-04-24 22:28 | 41.09367 | -95.79303 | 30336 ft | 466 kts | 77° |
| 2026-04-24 22:28 | 41.10097 | -95.75114 | 29830 ft | 461 kts | 77° |
| 2026-04-24 22:29 | 41.11498 | -95.67039 | 28677 ft | 456 kts | 77° |
| 2026-04-24 22:29 | 41.12212 | -95.62908 | 28137 ft | 452 kts | 77° |
| 2026-04-24 22:29 | 41.12913 | -95.58849 | 27630 ft | 448 kts | 77° |
| 2026-04-24 22:30 | 41.13608 | -95.54815 | 27098 ft | 444 kts | 77° |
| 2026-04-24 22:30 | 41.14293 | -95.50822 | 26578 ft | 440 kts | 77° |
| 2026-04-24 22:30 | 41.14972 | -95.46858 | 26058 ft | 437 kts | 76° |
| 2026-04-24 22:30 | 41.15644 | -95.42928 | 25482 ft | 435 kts | 76° |
| 2026-04-24 22:31 | 41.16314 | -95.39002 | 24956 ft | 431 kts | 76° |
| 2026-04-24 22:31 | 41.16972 | -95.35138 | 24426 ft | 428 kts | 76° |
| 2026-04-24 22:31 | 41.17613 | -95.31362 | 23935 ft | 423 kts | 77° |
| 2026-04-24 22:31 | 41.18257 | -95.27563 | 23397 ft | 420 kts | 77° |
| 2026-04-24 22:32 | 41.18903 | -95.23743 | 22840 ft | 418 kts | 77° |
| 2026-04-24 22:32 | 41.19532 | -95.20014 | 22328 ft | 414 kts | 77° |
| 2026-04-24 22:32 | 41.20159 | -95.16289 | 21810 ft | 411 kts | 77° |
| 2026-04-24 22:32 | 41.20782 | -95.12583 | 21296 ft | 408 kts | 77° |
| 2026-04-24 22:33 | 41.21397 | -95.08916 | 20771 ft | 405 kts | 76° |
| 2026-04-24 22:33 | 41.22013 | -95.05243 | 20282 ft | 401 kts | 77° |
| 2026-04-24 22:33 | 41.22610 | -95.01668 | 19797 ft | 398 kts | 77° |
| 2026-04-24 22:33 | 41.23208 | -94.98086 | 19272 ft | 395 kts | 77° |
| 2026-04-24 22:34 | 41.23806 | -94.94493 | 18789 ft | 392 kts | 77° |
| 2026-04-24 22:34 | 41.24387 | -94.90990 | 18272 ft | 390 kts | 76° |
| 2026-04-24 22:34 | 41.24972 | -94.87460 | 17752 ft | 388 kts | 76° |
| 2026-04-24 22:34 | 41.25557 | -94.83916 | 17241 ft | 385 kts | 76° |
| 2026-04-24 22:35 | 41.26130 | -94.80441 | 16790 ft | 382 kts | 76° |
| 2026-04-24 22:35 | 41.26701 | -94.76972 | 16297 ft | 379 kts | 76° |
| 2026-04-24 22:35 | 41.27261 | -94.73570 | 15814 ft | 376 kts | 76° |
| 2026-04-24 22:35 | 41.27817 | -94.70187 | 15382 ft | 373 kts | 76° |
| 2026-04-24 22:36 | 41.28371 | -94.66800 | 14884 ft | 371 kts | 76° |
| 2026-04-24 22:36 | 41.28916 | -94.63470 | 14445 ft | 367 kts | 76° |
| 2026-04-24 22:36 | 41.29463 | -94.60111 | 13990 ft | 364 kts | 76° |
| 2026-04-24 22:36 | 41.29995 | -94.56844 | 13536 ft | 362 kts | 76° |
| 2026-04-24 22:37 | 41.30529 | -94.53558 | 13089 ft | 359 kts | 76° |
| 2026-04-24 22:37 | 41.31058 | -94.50296 | 12651 ft | 356 kts | 76° |
| 2026-04-24 22:37 | 41.31579 | -94.47074 | 12385 ft | 347 kts | 76° |
| 2026-04-24 22:37 | 41.32074 | -94.44009 | 12269 ft | 334 kts | 76° |
| 2026-04-24 22:38 | 41.32554 | -94.41027 | 12169 ft | 322 kts | 76° |
| 2026-04-24 22:38 | 41.33017 | -94.38142 | 12083 ft | 310 kts | 76° |
| 2026-04-24 22:38 | 41.33462 | -94.35374 | 11873 ft | 303 kts | 76° |
| 2026-04-24 22:38 | 41.33904 | -94.32620 | 11550 ft | 301 kts | 77° |
| 2026-04-24 22:39 | 41.34343 | -94.29885 | 11171 ft | 300 kts | 77° |
| 2026-04-24 22:39 | 41.34784 | -94.27138 | 10851 ft | 297 kts | 76° |
| 2026-04-24 22:39 | 41.35213 | -94.24451 | 10551 ft | 294 kts | 77° |
| 2026-04-24 22:39 | 41.35640 | -94.21770 | 10204 ft | 293 kts | 76° |
| 2026-04-24 22:40 | 41.36061 | -94.19126 | 9849 ft | 292 kts | 76° |
| 2026-04-24 22:40 | 41.36486 | -94.16452 | 9504 ft | 290 kts | 76° |
| 2026-04-24 22:40 | 41.36904 | -94.13820 | 9173 ft | 288 kts | 76° |
| 2026-04-24 22:40 | 41.37309 | -94.11260 | 9058 ft | 278 kts | 76° |
| 2026-04-24 22:41 | 41.37701 | -94.08768 | 8964 ft | 267 kts | 76° |
| 2026-04-24 22:41 | 41.38077 | -94.06383 | 8844 ft | 256 kts | 76° |
| 2026-04-24 22:41 | 41.38445 | -94.04053 | 8501 ft | 254 kts | 75° |
| 2026-04-24 22:41 | 41.38812 | -94.01731 | 8141 ft | 253 kts | 75° |
| 2026-04-24 22:42 | 41.39173 | -93.99438 | 7801 ft | 251 kts | 75° |
| 2026-04-24 22:42 | 41.39534 | -93.97147 | 7430 ft | 251 kts | 75° |
| 2026-04-24 22:42 | 41.39890 | -93.94880 | 7087 ft | 249 kts | 75° |
| 2026-04-24 22:42 | 41.40249 | -93.92596 | 6731 ft | 248 kts | 75° |
| 2026-04-24 22:43 | 41.40596 | -93.90375 | 6500 ft | 244 kts | 75° |
| 2026-04-24 22:43 | 41.41061 | -93.88167 | 6298 ft | 244 kts | 62° |
| 2026-04-24 22:43 | 41.41937 | -93.86247 | 5881 ft | 241 kts | 48° |
| 2026-04-24 22:43 | 41.42991 | -93.84499 | 5437 ft | 243 kts | 47° |
| 2026-04-24 22:44 | 41.44049 | -93.82726 | 4972 ft | 246 kts | 49° |
| 2026-04-24 22:44 | 41.45104 | -93.80825 | 4283 ft | 257 kts | 51° |
| 2026-04-24 22:44 | 41.46169 | -93.78860 | 3563 ft | 266 kts | 52° |
| 2026-04-24 22:44 | 41.47277 | -93.76846 | 2955 ft | 267 kts | 51° |
| 2026-04-24 22:45 | 41.48373 | -93.74873 | 2530 ft | 262 kts | 52° |
| 2026-04-24 22:45 | 41.49458 | -93.72910 | 2057 ft | 260 kts | 52° |
| 2026-04-24 22:45 | 41.50533 | -93.70963 | 1615 ft | 255 kts | 52° |
| 2026-04-24 22:45 | 41.51552 | -93.69106 | 1549 ft | 236 kts | 52° |
| 2026-04-24 22:46 | 41.52296 | -93.67337 | 1669 ft | 215 kts | 68° |
| 2026-04-24 22:46 | 41.52693 | -93.65511 | 1813 ft | 192 kts | 73° |
| 2026-04-24 22:46 | 41.53003 | -93.63834 | 1961 ft | 185 kts | 73° |
| 2026-04-24 22:46 | 41.53313 | -93.62144 | 2108 ft | 184 kts | 73° |
| 2026-04-24 22:47 | 41.53619 | -93.60463 | 2263 ft | 186 kts | 73° |
| 2026-04-24 22:47 | 41.53926 | -93.58790 | 2407 ft | 185 kts | 70° |
| 2026-04-24 22:47 | 41.54466 | -93.57208 | 2545 ft | 184 kts | 57° |
| 2026-04-24 22:47 | 41.55111 | -93.55720 | 2574 ft | 184 kts | 57° |
| 2026-04-24 22:48 | 41.55759 | -93.54232 | 2581 ft | 184 kts | 57° |
| 2026-04-24 22:48 | 41.56405 | -93.52736 | 2582 ft | 184 kts | 57° |
| 2026-04-24 22:48 | 41.57043 | -93.51264 | 2582 ft | 183 kts | 57° |
| 2026-04-24 22:48 | 41.57691 | -93.49775 | 2584 ft | 184 kts | 57° |
| 2026-04-24 22:49 | 41.58342 | -93.48274 | 2583 ft | 185 kts | 57° |
| 2026-04-24 22:49 | 41.59266 | -93.46898 | 2801 ft | 209 kts | 24° |
| 2026-04-24 22:49 | 41.60640 | -93.46555 | 3148 ft | 194 kts | 357° |
| 2026-04-24 22:49 | 41.61946 | -93.46548 | 3110 ft | 179 kts | 6° |
| 2026-04-24 22:50 | 41.63197 | -93.46399 | 3087 ft | 177 kts | 358° |
| 2026-04-24 22:50 | 41.64376 | -93.46857 | 3086 ft | 177 kts | 326° |
| 2026-04-24 22:50 | 41.65018 | -93.48161 | 3072 ft | 168 kts | 282° |
| 2026-04-24 22:50 | 41.64784 | -93.49709 | 3077 ft | 176 kts | 239° |
| 2026-04-24 22:51 | 41.63906 | -93.50847 | 3133 ft | 177 kts | 221° |
| 2026-04-24 22:51 | 41.62934 | -93.51932 | 3197 ft | 179 kts | 223° |
| 2026-04-24 22:51 | 41.61979 | -93.53027 | 3182 ft | 181 kts | 223° |
| 2026-04-24 22:51 | 41.61024 | -93.54121 | 2978 ft | 178 kts | 223° |
| 2026-04-24 22:52 | 41.60092 | -93.55191 | 2731 ft | 176 kts | 223° |
| 2026-04-24 22:52 | 41.59169 | -93.56253 | 2559 ft | 165 kts | 223° |
| 2026-04-24 22:52 | 41.58305 | -93.57265 | 2351 ft | 163 kts | 226° |
| 2026-04-24 22:52 | 41.57520 | -93.58308 | 2184 ft | 158 kts | 230° |
| 2026-04-24 22:53 | 41.56781 | -93.59427 | 2058 ft | 162 kts | 233° |
| 2026-04-24 22:53 | 41.56101 | -93.60644 | 1719 ft | 159 kts | 237° |
| 2026-04-24 22:53 | 41.55532 | -93.61820 | 1563 ft | 144 kts | 238° |
| 2026-04-24 22:53 | 41.54972 | -93.62894 | 1368 ft | 138 kts | 236° |
| 2026-04-24 22:54 | 41.54391 | -93.63942 | 1168 ft | 139 kts | 234° |
| 2026-04-24 22:54 | 41.53796 | -93.64985 | 962 ft | 140 kts | 234° |
| 2026-04-24 22:54 | 41.53265 | -93.65962 | 931 ft | 107 kts | 240° |
| 2026-04-24 22:54 | 41.52961 | -93.66579 | 909 ft | 55 kts | 232° |
| 2026-04-24 22:55 | 41.52846 | -93.66785 | 906 ft | 5 kts | 232° |
| 2026-04-24 22:55 | 41.52811 | -93.66846 | 905 ft | 11 kts | 232° |
| 2026-04-24 22:55 | 41.52728 | -93.66850 | 908 ft | 13 kts | 143° |
| 2026-04-24 22:55 | 41.52743 | -93.66724 | 909 ft | 18 kts | 59° |
| 2026-04-24 22:56 | 41.52832 | -93.66563 | 912 ft | 22 kts | 52° |
| 2026-04-24 22:56 | 41.52898 | -93.66451 | 915 ft | 12 kts | 51° |
| 2026-04-24 22:56 | 41.52944 | -93.66372 | 917 ft | 9 kts | 53° |
| 2026-04-24 22:56 | 41.52980 | -93.66302 | 919 ft | 9 kts | 56° |
| 2026-04-24 22:57 | 41.53020 | -93.66222 | 920 ft | 10 kts | 55° |
| 2026-04-24 22:57 | 41.53064 | -93.66138 | 924 ft | 11 kts | 54° |
| 2026-04-24 22:57 | 41.53120 | -93.66036 | 928 ft | 14 kts | 53° |
| 2026-04-24 22:57 | 41.53184 | -93.65925 | 931 ft | 15 kts | 53° |
| 2026-04-24 22:58 | 41.53245 | -93.65814 | 936 ft | 14 kts | 56° |
| 2026-04-24 22:58 | 41.53301 | -93.65709 | 939 ft | 13 kts | 53° |
| 2026-04-24 22:58 | 41.53361 | -93.65599 | 940 ft | 15 kts | 53° |
| 2026-04-24 22:58 | 41.53429 | -93.65479 | 941 ft | 16 kts | 52° |
| 2026-04-24 22:59 | 41.53504 | -93.65346 | 942 ft | 17 kts | 53° |
| 2026-04-24 22:59 | 41.53549 | -93.65232 | 941 ft | 11 kts | 91° |
| 2026-04-24 22:59 | 41.53434 | -93.65169 | 942 ft | 7 kts | 135° |
| 2026-04-24 23:00 | 41.53422 | -93.65107 | 943 ft | 6 kts | 94° |
| 2026-04-24 23:00 | 41.53420 | -93.65081 | 943 ft | 0 kts | 95° |